Time;durP1;ratioP1;P1;durP2;ratioP2;P2;SDS_P1;SDS_P2;PMS_P1;PMS_P2;Temp;Humidity;BMP_temperature;BMP_pressure;BME280_temperature;BME280_humidity;BME280_pressure;Samples;Min_cycle;Max_cycle;Signal;HPM_P1;HPM_P2
2022/12/31 00:01:22;;;;;;;10.50;3.13;;;12.00;99.90;;;;;;6259003;22;20039;-79
2022/12/31 00:03:48;;;;;;;7.38;3.35;;;12.20;99.90;;;;;;6260083;22;20015;-80
2022/12/31 00:06:25;;;;;;;24.77;10.00;;;12.00;99.90;;;;;;6259936;22;20206;-78
2022/12/31 00:08:53;;;;;;;8.35;3.10;;;11.90;99.90;;;;;;6285702;22;20046;-79
2022/12/31 00:15:30;;;;;;;10.70;3.58;;;12.10;99.90;;;;;;6217114;23;20012;-78
2022/12/31 00:18:48;;;;;;;9.50;2.72;;;11.90;99.90;;;;;;6050174;23;20018;-79
2022/12/31 00:21:53;;;;;;;5.10;2.58;;;11.00;99.90;;;;;;6021505;23;20309;-78
2022/12/31 00:28:51;;;;;;;;;;;;;;;;;;;;;
2022/12/31 00:39:19;;;;;;;13.27;4.20;;;12.40;99.90;;;;;;6191357;23;20044;-78
2022/12/31 00:42:47;;;;;;;12.43;3.63;;;10.70;99.90;;;;;;6167227;23;20023;-80
2022/12/31 01:03:16;;;;;;;;;;;;;;;;;;;;;
2022/12/31 01:05:45;;;;;;;12.75;3.67;;;12.10;99.90;;;;;;5091965;28;20036;-78
2022/12/31 01:12:05;;;;;;;15.38;4.80;;;12.60;99.90;;;;;;5066278;28;20242;-77
2022/12/31 01:14:41;;;;;;;11.68;3.65;;;12.20;99.90;;;;;;5064439;28;20054;-79
2022/12/31 01:17:12;;;;;;;11.30;3.40;;;12.00;99.90;;;;;;5071616;28;20099;-77
2022/12/31 01:19:49;;;;;;;12.18;3.45;;;12.10;99.90;;;;;;5078658;28;20109;-78
2022/12/31 01:22:53;;;;;;;11.52;3.50;;;13.30;99.90;;;;;;5070768;28;20331;-78
2022/12/31 01:29:20;;;;;;;;;;;;;;;;;;;;;
2022/12/31 01:32:39;;;;;;;;;;;;;;;;;;;;;
2022/12/31 01:36:23;;;;;;;10.60;4.13;;;12.20;99.90;;;;;;4971806;28;20074;-78
2022/12/31 01:55:26;;;;;;;;;;;;;;;;;;;;;
2022/12/31 01:58:28;;;;;;;6.70;3.33;;;10.40;99.90;;;;;;4846254;29;20358;-78
2022/12/31 02:04:07;;;;;;;8.73;3.78;;;12.20;99.90;;;;;;4906275;29;20301;-77
2022/12/31 02:06:56;;;;;;;10.23;3.38;;;12.50;99.90;;;;;;4904267;29;20265;-78
2022/12/31 02:09:25;;;;;;;7.45;3.78;;;12.60;99.90;;;;;;4968864;28;20053;-77
2022/12/31 02:12:59;;;;;;;;;;;;;;;;;;;;;
2022/12/31 02:15:43;;;;;;;7.85;3.45;;;11.90;99.90;;;;;;4962605;28;20027;-81
2022/12/31 02:18:58;;;;;;;;;;;;;;;;;;;;;
2022/12/31 02:22:05;;;;;;;15.68;3.88;;;12.40;99.90;;;;;;4999479;28;20047;-78
2022/12/31 02:43:55;;;;;;;5.60;2.90;;;10.90;99.90;;;;;;4911747;29;20057;-79
2022/12/31 03:04:30;;;;;;;5.85;2.53;;;12.30;99.90;;;;;;4961437;28;20074;-80
2022/12/31 03:06:54;;;;;;;7.25;3.00;;;12.10;99.90;;;;;;4962739;28;20226;-77
2022/12/31 03:09:32;;;;;;;6.68;2.63;;;11.90;99.90;;;;;;4934010;28;20309;-79
2022/12/31 03:14:54;;;;;;;6.82;2.40;;;12.20;99.90;;;;;;5080507;28;20043;-80
2022/12/31 03:17:20;;;;;;;6.68;2.70;;;13.90;99.90;;;;;;5052525;28;20323;-80
2022/12/31 03:22:43;;;;;;;3.78;1.83;;;12.30;99.90;;;;;;5065737;28;20036;-80
2022/12/31 03:25:42;;;;;;;6.10;1.90;;;11.90;99.90;;;;;;5088191;28;20036;-79
2022/12/31 03:28:37;;;;;;;4.15;1.70;;;10.90;99.90;;;;;;5040173;28;20235;-79
2022/12/31 03:31:17;;;;;;;4.07;1.80;;;12.10;99.90;;;;;;5067636;28;20350;-79
2022/12/31 03:40:17;;;;;;;3.95;1.40;;;11.60;99.90;;;;;;5060348;28;20086;-80
2022/12/31 03:43:21;;;;;;;4.55;1.67;;;11.70;99.90;;;;;;5064577;28;20036;-80
2022/12/31 03:46:35;;;;;;;4.60;1.57;;;10.80;99.90;;;;;;5063231;28;20234;-80
2022/12/31 03:49:15;;;;;;;3.95;1.10;;;13.90;99.90;;;;;;5048566;28;20021;-80
2022/12/31 03:51:52;;;;;;;5.05;1.45;;;11.90;99.90;;;;;;5063365;28;20091;-80
2022/12/31 03:54:45;;;;;;;3.50;1.10;;;11.50;99.90;;;;;;5076904;28;20028;-80
2022/12/31 03:57:28;;;;;;;3.80;1.00;;;11.60;99.90;;;;;;5080545;28;20030;-81
2022/12/31 04:00:09;;;;;;;3.17;0.90;;;11.40;99.90;;;;;;5079056;28;20055;-80
2022/12/31 04:02:38;;;;;;;2.33;0.80;;;11.50;99.90;;;;;;5064965;28;20043;-80
2022/12/31 04:05:04;;;;;;;4.53;1.10;;;10.50;99.90;;;;;;5059862;28;20338;-81
2022/12/31 04:07:32;;;;;;;2.97;0.95;;;11.30;99.90;;;;;;5052561;28;20323;-81
2022/12/31 04:10:02;;;;;;;2.78;1.17;;;11.20;99.90;;;;;;5048847;28;20028;-81
2022/12/31 04:12:48;;;;;;;3.10;1.00;;;10.50;99.90;;;;;;5049821;28;20024;-81
2022/12/31 04:15:20;;;;;;;4.00;0.73;;;11.30;99.90;;;;;;5072156;28;20210;-82
2022/12/31 04:17:47;;;;;;;2.50;0.70;;;11.20;99.90;;;;;;5055218;28;20032;-80
2022/12/31 04:24:44;;;;;;;3.42;0.98;;;11.50;99.90;;;;;;4963226;28;20053;-80
2022/12/31 04:27:38;;;;;;;3.88;1.30;;;10.40;99.90;;;;;;4933570;28;20249;-78
2022/12/31 04:30:37;;;;;;;4.97;1.45;;;11.30;99.90;;;;;;4986727;28;20041;-80
2022/12/31 04:33:31;;;;;;;2.50;0.90;;;10.20;99.90;;;;;;5005420;28;20291;-80
2022/12/31 04:36:58;;;;;;;4.57;1.20;;;12.80;99.90;;;;;;4983846;28;20112;-80
2022/12/31 05:11:44;;;;;;;6.18;1.48;;;10.30;99.90;;;;;;4864662;29;20040;-80
2022/12/31 05:18:08;;;;;;;3.17;1.80;;;11.60;99.90;;;;;;4887011;29;20040;-80
2022/12/31 05:21:04;;;;;;;5.22;2.08;;;11.80;99.90;;;;;;5046503;28;20099;-80
2022/12/31 05:23:40;;;;;;;4.28;1.85;;;11.50;99.90;;;;;;5066216;28;20078;-82
2022/12/31 05:34:06;;;;;;;3.55;1.63;;;11.30;99.90;;;;;;4988073;28;20049;-78
2022/12/31 05:37:01;;;;;;;4.55;1.98;;;10.50;99.90;;;;;;4966848;28;20216;-80
2022/12/31 05:40:03;;;;;;;;;;;;;;;;;;;;;
2022/12/31 05:42:52;;;;;;;;;;;;;;;;;;;;;
2022/12/31 05:45:53;;;;;;;5.28;1.42;;;11.50;99.90;;;;;;5076129;28;20036;-79
2022/12/31 05:48:46;;;;;;;3.55;1.42;;;11.50;99.90;;;;;;5056435;28;20139;-79
2022/12/31 05:55:27;;;;;;;;;;;;;;;;;;;;;
2022/12/31 05:58:17;;;;;;;8.75;2.22;;;11.20;99.90;;;;;;5086676;28;20067;-80
2022/12/31 06:04:51;;;;;;;4.50;1.35;;;11.40;99.90;;;;;;5063919;28;20029;-78
2022/12/31 06:07:54;;;;;;;3.97;1.23;;;10.20;99.90;;;;;;4985865;28;20069;-78
2022/12/31 06:11:24;;;;;;;5.47;1.35;;;11.90;99.90;;;;;;5012043;28;20040;-78
2022/12/31 06:13:51;;;;;;;3.92;1.15;;;10.80;99.90;;;;;;5061127;28;20047;-79
2022/12/31 06:16:19;;;;;;;3.95;1.50;;;11.20;99.90;;;;;;5035381;28;20027;-78
2022/12/31 06:18:49;;;;;;;6.65;1.90;;;11.60;99.90;;;;;;5048911;28;20028;-78
2022/12/31 06:21:19;;;;;;;4.78;1.20;;;11.40;99.90;;;;;;5061988;28;20047;-80
2022/12/31 06:23:46;;;;;;;5.18;1.77;;;11.10;99.90;;;;;;5059860;28;20327;-79
2022/12/31 06:26:12;;;;;;;2.63;1.25;;;11.60;99.90;;;;;;5057189;28;20044;-79
2022/12/31 06:28:38;;;;;;;3.60;1.38;;;11.00;99.90;;;;;;5049143;28;20064;-80
2022/12/31 06:31:05;;;;;;;5.72;1.50;;;11.30;99.90;;;;;;5052659;28;20100;-81
2022/12/31 06:53:23;;;;;;;4.50;1.70;;;9.40;99.90;;;;;;4845072;29;20062;-80
2022/12/31 06:55:54;;;;;;;3.55;1.25;;;9.60;99.90;;;;;;4814307;29;20058;-77
2022/12/31 06:58:23;;;;;;;3.97;1.23;;;10.90;99.90;;;;;;4829847;29;20194;-77
2022/12/31 07:01:33;;;;;;;4.18;2.17;;;11.10;99.90;;;;;;4863620;29;20217;-80
2022/12/31 07:04:01;;;;;;;4.00;1.83;;;11.00;99.90;;;;;;4985083;28;20041;-79
2022/12/31 07:06:39;;;;;;;2.80;1.40;;;10.90;99.90;;;;;;5058004;28;20035;-79
2022/12/31 07:09:11;;;;;;;5.05;1.75;;;10.80;99.90;;;;;;5063512;28;20080;-80
2022/12/31 07:11:59;;;;;;;5.93;2.85;;;11.30;99.90;;;;;;5057291;28;20024;-79
2022/12/31 07:14:57;;;;;;;5.13;3.30;;;11.40;99.90;;;;;;5071321;28;20082;-79
2022/12/31 07:17:26;;;;;;;7.78;3.78;;;11.50;99.90;;;;;;5071169;28;20187;-80
2022/12/31 07:20:06;;;;;;;6.65;3.70;;;11.40;99.90;;;;;;5065905;28;20039;-78
2022/12/31 07:22:32;;;;;;;4.90;3.45;;;11.10;99.90;;;;;;5080945;28;20109;-78
2022/12/31 07:24:58;;;;;;;5.72;3.53;;;11.10;99.90;;;;;;5032600;28;20054;-79
2022/12/31 07:27:41;;;;;;;3.75;2.90;;;11.40;99.90;;;;;;5059468;28;20355;-81
2022/12/31 07:30:18;;;;;;;3.92;3.33;;;11.60;99.90;;;;;;5061563;28;20040;-80
2022/12/31 07:33:35;;;;;;;4.78;2.70;;;11.10;99.90;;;;;;5076209;28;20195;-79
2022/12/31 07:36:16;;;;;;;3.33;2.40;;;11.60;99.90;;;;;;5015698;28;20064;-80
2022/12/31 07:38:51;;;;;;;5.20;2.47;;;11.70;99.90;;;;;;5071345;28;20036;-79
2022/12/31 07:41:23;;;;;;;4.72;2.33;;;11.40;99.90;;;;;;5055775;28;20068;-80
2022/12/31 07:44:01;;;;;;;4.35;2.47;;;11.10;99.90;;;;;;5062956;28;20027;-81
2022/12/31 07:46:52;;;;;;;4.72;2.70;;;11.20;99.90;;;;;;5055810;28;20033;-79
2022/12/31 07:49:18;;;;;;;2.70;2.40;;;11.60;99.90;;;;;;5057711;28;20111;-80
2022/12/31 07:51:44;;;;;;;3.40;2.10;;;11.10;99.90;;;;;;5067624;28;20036;-80
2022/12/31 07:54:10;;;;;;;10.35;2.30;;;11.20;99.90;;;;;;5067711;28;20778;-80
2022/12/31 07:56:36;;;;;;;3.38;1.88;;;11.10;99.90;;;;;;5056689;28;20035;-81
2022/12/31 07:59:21;;;;;;;3.17;1.80;;;11.60;99.90;;;;;;5042695;28;20226;-77
2022/12/31 08:01:58;;;;;;;2.72;2.40;;;11.30;99.90;;;;;;5050693;28;20039;-76
2022/12/31 08:04:48;;;;;;;3.72;1.90;;;11.30;99.90;;;;;;5058765;28;20107;-78
2022/12/31 08:07:46;;;;;;;3.15;2.17;;;11.30;99.90;;;;;;5057277;28;20046;-78
2022/12/31 08:11:01;;;;;;;3.65;1.75;;;11.10;99.90;;;;;;5069690;28;20105;-75
2022/12/31 08:13:45;;;;;;;3.83;3.00;;;11.70;99.90;;;;;;5044704;28;20041;-80
2022/12/31 08:16:52;;;;;;;;;;;;;;;;;;;;;
2022/12/31 08:19:31;;;;;;;3.65;2.60;;;12.50;99.90;;;;;;5080200;28;20039;-78
2022/12/31 08:22:06;;;;;;;2.80;2.20;;;11.30;99.90;;;;;;5046794;28;20032;-78
2022/12/31 08:24:50;;;;;;;3.45;2.70;;;11.50;99.90;;;;;;5047400;28;20032;-80
2022/12/31 08:27:53;;;;;;;2.67;2.28;;;11.40;99.90;;;;;;5079666;28;20067;-79
2022/12/31 08:30:56;;;;;;;3.70;2.40;;;11.20;99.90;;;;;;5064454;28;20090;-80
2022/12/31 09:09:08;;;;;;;4.95;3.28;;;11.60;99.90;;;;;;4769145;30;20078;-79
2022/12/31 09:16:27;;;;;;;;;;;;;;;;;;;;;
2022/12/31 09:31:23;;;;;;;3.33;2.72;;;11.90;99.90;;;;;;4849437;29;20114;-78
2022/12/31 09:35:11;;;;;;;;;;;;;;;;;;;;;
2022/12/31 09:53:29;;;;;;;3.13;1.77;;;13.10;99.90;;;;;;4819709;29;20082;-78
2022/12/31 10:03:30;;;;;;;3.10;1.58;;;13.50;99.90;;;;;;4764394;29;20046;-76
2022/12/31 10:06:15;;;;;;;2.92;1.58;;;14.20;99.90;;;;;;4837446;29;20117;-76
2022/12/31 10:09:04;;;;;;;2.15;1.50;;;13.40;99.90;;;;;;4924638;29;20388;-76
2022/12/31 10:11:39;;;;;;;2.35;1.40;;;13.30;99.90;;;;;;5028170;28;20099;-75
2022/12/31 10:14:24;;;;;;;2.70;1.63;;;13.80;99.90;;;;;;5044693;28;20136;-77
2022/12/31 10:24:48;;;;;;;2.50;1.00;;;13.90;99.90;;;;;;5066586;28;20044;-77
2022/12/31 10:28:35;;;;;;;;;;;;;;;;;;;;;
2022/12/31 10:36:06;;;;;;;;;;;;;;;;;;;;;
2022/12/31 10:54:13;;;;;;;4.05;1.20;;;13.40;99.90;;;;;;4956507;28;20061;-76
2022/12/31 10:57:16;;;;;;;4.32;1.40;;;14.00;99.90;;;;;;4957927;28;20372;-76
2022/12/31 11:19:03;;;;;;;5.20;1.33;;;13.20;99.90;;;;;;4849021;29;20064;-76
2022/12/31 11:29:03;;;;;;;;;;;;;;;;;;;;;
2022/12/31 11:32:03;;;;;;;5.45;1.55;;;12.60;99.90;;;;;;5047408;28;20115;-76
2022/12/31 11:35:01;;;;;;;8.10;1.50;;;14.30;99.90;;;;;;5040184;28;20050;-76
2022/12/31 11:41:56;;;;;;;14.07;1.80;;;14.60;99.90;;;;;;5054179;28;20305;-76
2022/12/31 11:48:37;;;;;;;6.35;1.88;;;15.20;99.90;;;;;;4957750;28;20094;-73
2022/12/31 11:51:30;;;;;;;11.00;2.22;;;14.20;99.90;;;;;;4932926;28;20118;-75
2022/12/31 11:54:33;;;;;;;8.52;1.75;;;14.20;99.90;;;;;;4977169;28;20035;-76
2022/12/31 11:57:27;;;;;;;5.68;1.40;;;13.20;99.90;;;;;;4973041;28;20030;-76
2022/12/31 12:00:07;;;;;;;2.20;1.10;;;14.00;99.90;;;;;;5036337;28;20044;-76
2022/12/31 12:03:02;;;;;;;11.73;2.78;;;13.10;99.90;;;;;;5066371;28;20099;-76
2022/12/31 12:05:29;;;;;;;6.00;1.90;;;14.30;99.90;;;;;;5059061;28;20040;-75
2022/12/31 12:08:15;;;;;;;7.68;1.45;;;14.40;99.90;;;;;;5042306;28;20103;-76
2022/12/31 12:11:14;;;;;;;4.18;1.23;;;14.60;99.90;;;;;;5060109;28;20275;-76
2022/12/31 12:13:42;;;;;;;5.78;1.60;;;15.30;99.90;;;;;;5070487;28;20043;-76
2022/12/31 12:28:22;;;;;;;7.78;2.20;;;12.80;99.90;;;;;;4973723;28;20303;-79
2022/12/31 12:31:26;;;;;;;6.55;1.40;;;14.00;99.90;;;;;;4944259;28;20093;-76
2022/12/31 12:33:54;;;;;;;5.40;1.77;;;13.40;99.90;;;;;;4966955;28;20120;-76
2022/12/31 12:36:20;;;;;;;7.13;2.00;;;14.50;99.90;;;;;;4988589;28;20034;-77
2022/12/31 12:39:09;;;;;;;9.35;2.15;;;14.40;99.90;;;;;;5030074;28;20093;-77
2022/12/31 12:45:45;;;;;;;8.02;1.60;;;13.60;99.90;;;;;;4991113;28;20355;-78
2022/12/31 12:51:53;;;;;;;6.65;1.98;;;14.20;99.90;;;;;;5072889;28;20059;-76
2022/12/31 12:54:47;;;;;;;7.18;2.10;;;14.00;99.90;;;;;;5066646;28;20028;-77
2022/12/31 12:57:23;;;;;;;5.65;2.33;;;14.00;99.90;;;;;;5045266;28;20032;-77
2022/12/31 13:00:00;;;;;;;8.77;2.38;;;14.40;99.90;;;;;;5061407;28;20289;-75
2022/12/31 13:02:55;;;;;;;4.90;1.60;;;14.00;99.90;;;;;;5051163;28;20064;-76
2022/12/31 13:05:43;;;;;;;7.70;2.08;;;15.00;99.90;;;;;;5046006;28;20047;-76
2022/12/31 13:12:24;;;;;;;9.00;2.40;;;14.00;99.90;;;;;;5007267;28;20049;-76
2022/12/31 13:15:20;;;;;;;5.72;1.88;;;14.30;99.90;;;;;;5046705;28;20041;-75
2022/12/31 13:21:32;;;;;;;6.18;1.67;;;13.40;99.90;;;;;;5081275;28;20086;-76
2022/12/31 13:24:13;;;;;;;8.40;2.58;;;14.40;99.90;;;;;;5081212;28;20081;-74
2022/12/31 13:26:58;;;;;;;8.32;2.45;;;13.80;99.90;;;;;;5062618;28;20037;-75
2022/12/31 13:29:26;;;;;;;;;;;13.70;99.90;;;;;;5045406;28;20101;-75
2022/12/31 13:31:56;;;;;;;8.57;2.20;;;13.80;99.90;;;;;;5065425;28;19916;-75
2022/12/31 13:34:29;;;;;;;6.43;2.00;;;14.00;99.90;;;;;;5044593;28;20043;-75
2022/12/31 13:37:02;;;;;;;5.72;1.88;;;14.00;99.90;;;;;;5057890;28;20141;-75
2022/12/31 13:39:31;;;;;;;7.30;2.08;;;13.70;99.90;;;;;;5069965;28;20214;-75
2022/12/31 13:42:06;;;;;;;12.18;2.22;;;14.10;99.90;;;;;;5054346;28;20040;-75
2022/12/31 13:44:45;;;;;;;6.78;1.67;;;13.70;99.90;;;;;;5073847;28;20043;-77
2022/12/31 13:47:34;;;;;;;8.23;1.70;;;13.40;99.90;;;;;;5065562;28;20071;-77
2022/12/31 13:50:18;;;;;;;7.72;1.70;;;14.00;99.90;;;;;;5063943;28;20345;-76
2022/12/31 13:53:11;;;;;;;11.52;4.28;;;13.80;99.90;;;;;;5076779;28;20083;-77
2022/12/31 13:59:44;;;;;;;4.97;1.70;;;13.90;99.90;;;;;;4999343;28;20066;-77
2022/12/31 14:02:24;;;;;;;9.90;2.25;;;13.20;99.90;;;;;;4967067;28;20068;-77
2022/12/31 14:05:00;;;;;;;5.63;1.83;;;13.30;99.90;;;;;;5072339;28;20032;-78
2022/12/31 14:07:35;;;;;;;4.05;1.60;;;13.20;99.90;;;;;;5061123;28;20067;-80
2022/12/31 14:10:01;;;;;;;6.32;1.60;;;13.70;99.90;;;;;;5073936;28;20028;-79
2022/12/31 14:13:00;;;;;;;7.70;1.90;;;13.10;99.90;;;;;;5042855;28;20359;-76
2022/12/31 14:20:13;;;;;;;;;;;;;;;;;;;;;
2022/12/31 14:30:12;;;;;;;7.63;1.55;;;12.60;99.90;;;;;;5016069;28;20044;-76
2022/12/31 14:37:38;;;;;;;4.47;2.08;;;13.70;99.90;;;;;;5001606;28;20099;-79
2022/12/31 14:40:27;;;;;;;6.50;1.90;;;13.10;99.90;;;;;;4986326;28;20113;-79
2022/12/31 14:43:20;;;;;;;2.55;1.42;;;13.30;99.90;;;;;;4979294;28;20038;-76
2022/12/31 14:46:19;;;;;;;2.22;1.02;;;13.50;99.90;;;;;;4987598;28;20083;-77
2022/12/31 14:49:19;;;;;;;3.65;1.25;;;13.20;99.90;;;;;;5055373;28;20265;-77
2022/12/31 14:51:45;;;;;;;2.60;1.20;;;13.20;99.90;;;;;;5054848;28;20054;-76
2022/12/31 14:54:27;;;;;;;2.92;1.52;;;13.70;99.90;;;;;;5074347;28;20024;-75
2022/12/31 14:56:53;;;;;;;2.47;1.48;;;13.20;99.90;;;;;;5039143;28;20311;-74
2022/12/31 14:59:58;;;;;;;2.55;1.20;;;13.80;99.90;;;;;;5070843;28;20138;-76
2022/12/31 15:02:34;;;;;;;4.10;1.30;;;13.20;99.90;;;;;;5041170;28;20211;-75
2022/12/31 15:08:24;;;;;;;5.28;1.85;;;13.30;99.90;;;;;;5080992;28;20059;-77
2022/12/31 15:11:22;;;;;;;4.70;2.22;;;13.30;99.90;;;;;;5079975;28;20035;-77
2022/12/31 15:24:55;;;;;;;3.65;1.13;;;12.20;99.90;;;;;;4986821;28;20056;-77
2022/12/31 15:27:35;;;;;;;5.35;1.50;;;13.00;99.90;;;;;;4984791;28;20037;-76
2022/12/31 15:30:04;;;;;;;1.45;1.10;;;12.90;99.90;;;;;;5028393;28;20036;-74
2022/12/31 15:32:39;;;;;;;2.63;2.10;;;13.50;99.90;;;;;;5028859;28;20041;-76
2022/12/31 15:35:20;;;;;;;3.38;1.80;;;13.00;99.90;;;;;;5027909;28;20197;-75
2022/12/31 15:38:01;;;;;;;2.10;1.63;;;12.90;99.90;;;;;;5053785;28;20050;-77
2022/12/31 15:40:28;;;;;;;3.35;1.50;;;13.30;99.90;;;;;;5050971;28;20025;-78
2022/12/31 15:43:12;;;;;;;4.47;1.98;;;13.50;99.90;;;;;;5016116;28;20024;-81
2022/12/31 15:45:40;;;;;;;2.85;2.08;;;13.10;99.90;;;;;;5040217;28;20072;-81
2022/12/31 15:48:42;;;;;;;3.30;2.00;;;13.10;99.90;;;;;;5011714;28;20080;-81
2022/12/31 15:51:30;;;;;;;;;;;;;;;;;;;;;
2022/12/31 15:54:03;;;;;;;3.78;2.53;;;12.00;99.90;;;;;;5037459;28;20067;-79
2022/12/31 15:56:36;;;;;;;4.53;3.00;;;13.40;99.90;;;;;;5053685;28;20037;-79
2022/12/31 15:59:06;;;;;;;4.63;2.90;;;12.90;99.90;;;;;;5019641;28;20034;-79
2022/12/31 16:01:54;;;;;;;2.47;2.00;;;13.10;99.90;;;;;;5040463;28;20292;-79
2022/12/31 16:04:27;;;;;;;3.42;1.88;;;13.20;99.90;;;;;;5010922;28;20240;-78
2022/12/31 16:17:35;;;;;;;3.50;2.50;;;13.50;99.90;;;;;;4930881;29;20554;-79
2022/12/31 16:20:24;;;;;;;5.55;2.90;;;13.50;99.90;;;;;;4927606;28;20214;-78
2022/12/31 16:22:58;;;;;;;17.30;12.85;;;13.80;99.90;;;;;;5003044;28;20042;-78
2022/12/31 16:25:27;;;;;;;7.07;4.25;;;13.60;99.90;;;;;;5011475;28;20026;-78
2022/12/31 16:27:53;;;;;;;8.15;3.47;;;14.00;99.90;;;;;;5042834;28;20107;-78
2022/12/31 16:30:28;;;;;;;7.85;3.17;;;14.00;99.90;;;;;;5059901;28;20037;-77
2022/12/31 16:32:59;;;;;;;6.38;3.40;;;13.90;99.90;;;;;;5055110;28;20059;-78
2022/12/31 16:35:52;;;;;;;8.80;3.17;;;13.50;99.90;;;;;;5056010;28;20378;-77
2022/12/31 16:38:39;;;;;;;9.75;3.15;;;13.50;99.90;;;;;;5049170;28;20044;-77
2022/12/31 16:41:17;;;;;;;8.02;3.08;;;14.10;99.90;;;;;;5076326;28;20248;-77
2022/12/31 16:43:48;;;;;;;7.68;3.33;;;13.50;99.90;;;;;;5047772;28;20028;-78
2022/12/31 16:46:25;;;;;;;10.90;3.75;;;13.40;99.90;;;;;;5044129;28;20390;-78
2022/12/31 16:52:57;;;;;;;;;;;;;;;;;;;;;
2022/12/31 16:56:11;;;;;;;11.38;6.28;;;13.30;99.90;;;;;;4980722;28;20078;-78
2022/12/31 16:59:29;;;;;;;13.90;7.10;;;14.20;99.90;;;;;;4985151;28;20068;-72
2022/12/31 17:02:37;;;;;;;15.35;7.25;;;13.70;99.90;;;;;;5006363;28;20402;-78
2022/12/31 17:05:37;;;;;;;13.75;6.43;;;13.60;99.90;;;;;;5061380;28;20251;-78
2022/12/31 17:08:43;;;;;;;12.82;8.07;;;13.40;99.90;;;;;;5068500;28;20063;-79
2022/12/31 17:11:47;;;;;;;14.75;7.43;;;14.20;99.90;;;;;;5040723;28;20104;-78
2022/12/31 17:18:44;;;;;;;14.13;7.13;;;12.80;99.90;;;;;;5074205;28;20044;-79
2022/12/31 17:21:13;;;;;;;16.25;8.73;;;12.80;99.90;;;;;;5055536;28;20032;-78
2022/12/31 17:23:52;;;;;;;19.10;10.73;;;14.00;99.90;;;;;;5061697;28;20040;-79
2022/12/31 17:26:26;;;;;;;21.23;12.05;;;14.00;99.90;;;;;;5064279;28;20036;-77
2022/12/31 17:28:59;;;;;;;17.67;9.35;;;14.10;99.90;;;;;;5054358;28;20059;-78
2022/12/31 17:31:56;;;;;;;18.20;8.98;;;13.80;99.90;;;;;;5062263;28;20765;-77
2022/12/31 17:39:00;;;;;;;16.17;7.15;;;13.30;99.90;;;;;;5020567;28;20084;-77
2022/12/31 17:41:31;;;;;;;17.38;9.43;;;14.00;99.90;;;;;;4995462;28;20285;-78
2022/12/31 17:44:03;;;;;;;16.63;9.55;;;13.70;99.90;;;;;;5055952;28;20039;-76
2022/12/31 17:46:39;;;;;;;13.13;6.70;;;14.00;99.90;;;;;;5058787;28;20036;-78
2022/12/31 17:49:10;;;;;;;13.73;5.90;;;14.80;99.90;;;;;;5055354;28;20040;-77
2022/12/31 17:51:36;;;;;;;14.77;7.72;;;13.70;99.90;;;;;;5061183;28;20054;-78
2022/12/31 17:54:04;;;;;;;16.25;8.93;;;13.70;99.90;;;;;;5053539;28;20020;-78
2022/12/31 17:56:32;;;;;;;15.70;7.20;;;13.80;99.90;;;;;;5050952;28;20067;-77
2022/12/31 17:59:03;;;;;;;13.57;6.07;;;14.20;99.90;;;;;;5071539;28;20033;-76
2022/12/31 18:01:34;;;;;;;11.95;5.90;;;13.60;99.90;;;;;;5048719;28;20035;-77
2022/12/31 18:04:09;;;;;;;22.58;9.80;;;13.60;99.90;;;;;;5026978;28;20320;-76
2022/12/31 18:06:41;;;;;;;57.42;37.83;;;13.80;99.90;;;;;;5058569;28;20051;-75
2022/12/31 18:09:07;;;;;;;24.33;12.10;;;15.20;99.90;;;;;;5062041;28;20106;-76
2022/12/31 18:11:38;;;;;;;16.77;10.23;;;14.20;99.90;;;;;;5037510;28;20332;-76
2022/12/31 18:14:05;;;;;;;15.32;9.18;;;14.40;99.90;;;;;;5073651;28;20032;-77
2022/12/31 18:21:12;;;;;;;30.27;20.52;;;13.80;99.90;;;;;;4984047;28;20036;-76
2022/12/31 18:27:47;;;;;;;;;;;;;;;;;;;;;
2022/12/31 18:30:16;;;;;;;29.75;18.55;;;14.00;99.90;;;;;;4919644;28;20105;-77
2022/12/31 18:33:05;;;;;;;54.15;40.22;;;14.30;99.90;;;;;;4969030;28;20033;-78
2022/12/31 18:35:46;;;;;;;;;;;;;;;;;;;;;
2022/12/31 18:38:47;;;;;;;;;;;;;;;;;;;;;
2022/12/31 18:41:36;;;;;;;;;;;13.70;99.90;;;;;;5073254;28;20099;-77
2022/12/31 18:44:05;;;;;;;30.70;19.38;;;13.80;99.90;;;;;;5059634;28;20133;-76
2022/12/31 18:46:31;;;;;;;24.08;14.07;;;13.50;99.90;;;;;;5054153;28;20070;-77
2022/12/31 18:48:56;;;;;;;18.92;11.38;;;13.80;99.90;;;;;;5053631;28;20040;-77
2022/12/31 18:51:23;;;;;;;20.15;10.68;;;13.40;99.90;;;;;;5069343;28;20211;-78
2022/12/31 18:53:49;;;;;;;20.70;11.02;;;14.10;99.90;;;;;;5055070;28;20028;-76
2022/12/31 18:56:18;;;;;;;24.30;12.63;;;13.50;99.90;;;;;;5053909;28;20091;-76
2022/12/31 18:58:49;;;;;;;20.38;11.65;;;13.40;99.90;;;;;;5052729;28;20028;-77
2022/12/31 19:01:26;;;;;;;21.17;11.38;;;14.20;99.90;;;;;;5059942;28;20024;-78
2022/12/31 19:03:56;;;;;;;26.63;11.43;;;13.60;99.90;;;;;;5067772;28;20043;-78
2022/12/31 19:06:22;;;;;;;22.45;13.60;;;13.40;99.90;;;;;;5043024;28;20047;-77
2022/12/31 19:08:51;;;;;;;21.42;13.27;;;13.90;99.90;;;;;;5069218;28;20039;-78
2022/12/31 19:11:17;;;;;;;26.38;12.68;;;13.70;99.90;;;;;;5040837;28;20048;-76
2022/12/31 19:13:43;;;;;;;17.40;10.38;;;13.50;99.90;;;;;;5050120;28;20040;-75
2022/12/31 19:16:09;;;;;;;18.73;12.20;;;13.40;99.90;;;;;;5037012;28;20138;-78
2022/12/31 19:18:35;;;;;;;22.15;13.40;;;13.70;99.90;;;;;;5050699;28;20195;-77
2022/12/31 19:21:04;;;;;;;26.60;14.20;;;13.40;99.90;;;;;;5051042;28;20028;-76
2022/12/31 19:23:33;;;;;;;21.33;11.10;;;13.80;99.90;;;;;;5048908;28;20037;-75
2022/12/31 19:26:01;;;;;;;22.55;12.73;;;13.50;99.90;;;;;;5066744;28;20032;-75
2022/12/31 19:28:27;;;;;;;19.67;11.75;;;13.70;99.90;;;;;;5066867;28;20150;-75
2022/12/31 19:30:53;;;;;;;18.33;10.65;;;13.40;99.90;;;;;;5051626;28;20230;-77
2022/12/31 19:33:19;;;;;;;22.40;12.13;;;13.40;99.90;;;;;;5051178;28;20036;-76
2022/12/31 19:35:45;;;;;;;21.73;9.90;;;13.90;99.90;;;;;;5069190;28;20032;-76
2022/12/31 19:38:36;;;;;;;15.68;8.70;;;13.90;99.90;;;;;;5073703;28;20342;-76
2022/12/31 19:41:21;;;;;;;14.95;9.48;;;13.80;99.90;;;;;;4996830;28;20049;-77
2022/12/31 19:43:47;;;;;;;12.90;8.02;;;13.50;99.90;;;;;;5057458;28;20036;-75
2022/12/31 19:46:14;;;;;;;20.15;9.48;;;13.80;99.90;;;;;;5040098;28;20041;-75
2022/12/31 19:48:41;;;;;;;15.30;7.60;;;13.50;99.90;;;;;;5070328;28;20436;-75
2022/12/31 19:51:13;;;;;;;17.67;8.73;;;13.80;99.90;;;;;;5049194;28;20334;-75
2022/12/31 19:53:39;;;;;;;23.83;13.25;;;13.70;99.90;;;;;;5068943;28;20096;-75
2022/12/31 19:56:05;;;;;;;14.18;9.07;;;13.70;99.90;;;;;;5053470;28;20032;-75
2022/12/31 19:58:31;;;;;;;13.38;7.13;;;13.40;99.90;;;;;;5054031;28;20024;-75
2022/12/31 20:00:58;;;;;;;15.52;7.85;;;13.50;99.90;;;;;;5052532;28;20063;-75
2022/12/31 20:03:25;;;;;;;14.32;7.50;;;13.50;99.90;;;;;;5057998;28;20104;-77
2022/12/31 20:06:29;;;;;;;16.10;6.72;;;13.50;99.90;;;;;;5065201;28;20035;-76
2022/12/31 20:11:49;;;;;;;14.32;9.13;;;13.30;99.90;;;;;;4992296;28;20127;-76
2022/12/31 20:14:40;;;;;;;12.45;7.90;;;13.60;99.90;;;;;;4997273;28;20050;-76
2022/12/31 20:17:28;;;;;;;12.35;7.03;;;13.30;99.90;;;;;;4986878;28;20037;-76
2022/12/31 20:20:07;;;;;;;;;;;;;;;;;;;;;
2022/12/31 20:22:39;;;;;;;10.23;6.13;;;13.70;99.90;;;;;;5020987;28;20344;-76
2022/12/31 20:25:19;;;;;;;11.70;5.75;;;13.60;99.90;;;;;;4989200;28;20042;-75
2022/12/31 20:27:57;;;;;;;;;;;;;;;;;;;;;
2022/12/31 20:30:33;;;;;;;;;;;;;;;;;;;;;
2022/12/31 20:32:59;;;;;;;18.88;7.80;;;13.50;99.90;;;;;;4985704;28;20042;-75
2022/12/31 20:35:28;;;;;;;17.48;8.30;;;13.60;99.90;;;;;;5001550;28;20121;-77
2022/12/31 20:37:54;;;;;;;11.10;6.90;;;13.60;99.90;;;;;;5006763;28;20354;-75
2022/12/31 20:40:20;;;;;;;12.55;6.97;;;13.70;99.90;;;;;;5036952;28;20040;-73
2022/12/31 20:42:50;;;;;;;14.35;6.68;;;13.70;99.90;;;;;;5044136;28;20108;-74
2022/12/31 20:45:19;;;;;;;11.38;6.35;;;13.70;99.90;;;;;;5052610;28;20074;-75
2022/12/31 20:47:48;;;;;;;9.10;6.22;;;13.70;99.90;;;;;;5024947;28;20323;-76
2022/12/31 20:50:13;;;;;;;14.35;7.65;;;13.80;99.90;;;;;;5057323;28;20286;-73
2022/12/31 20:52:41;;;;;;;21.88;10.50;;;13.80;99.90;;;;;;5027170;28;20033;-75
2022/12/31 20:55:08;;;;;;;12.23;6.40;;;13.80;99.90;;;;;;5057910;28;20055;-74
2022/12/31 20:57:40;;;;;;;14.65;6.43;;;13.80;99.90;;;;;;5039123;28;20029;-74
2022/12/31 21:00:06;;;;;;;14.50;6.53;;;13.80;99.90;;;;;;5056739;28;20056;-75
2022/12/31 21:02:32;;;;;;;12.57;6.47;;;13.80;99.90;;;;;;5035480;28;20342;-74
2022/12/31 21:04:58;;;;;;;15.40;7.60;;;13.90;99.90;;;;;;5047018;28;20032;-73
2022/12/31 21:07:23;;;;;;;15.32;6.18;;;14.00;99.90;;;;;;5014327;28;20343;-76
2022/12/31 21:10:10;;;;;;;13.25;7.68;;;13.90;99.90;;;;;;5060774;28;20078;-75
2022/12/31 21:12:42;;;;;;;8.90;5.13;;;13.80;99.90;;;;;;5044298;28;20059;-74
2022/12/31 21:15:12;;;;;;;10.95;6.03;;;13.70;99.90;;;;;;5037481;28;20300;-73
2022/12/31 21:17:38;;;;;;;13.65;6.10;;;13.20;99.90;;;;;;5050546;28;20033;-74
2022/12/31 21:20:04;;;;;;;13.30;5.60;;;14.00;99.90;;;;;;5047614;28;20101;-73
2022/12/31 21:22:34;;;;;;;9.40;5.88;;;14.00;99.90;;;;;;5032229;28;20033;-74